• Join FlightAware (Why Join?)
  • Login
  • US Flag 
11:31PM EDT


 

Airport Tracker/Info


-or-


 

Live Flight TrackerFlight Track Log ✈ ASQ5685 ✈ 04-Dec-2013 ✈ KATL - KIAD

Flight Track Log - Related Links

Times and Time Zones

All times are in EST time to prevent confusion due to time zone crossing. See the ASQ5685 flight status page for this flight to view local times or setup timezone preferences in your user account.

Time Position Orientation Groundspeed Altitude Reporting Facility
EST Latitude Longitude Course Direction KTS MPH feet Rate Location/Type
09:54AM 33.6333 -84.3833 65° Northeast 196 226 2,200  Level Atlanta TRACON
09:56AM 33.6333 -84.3000 90° East 272 313 3,900 2,100 Climbing Atlanta TRACON
09:57AM 33.8757 -84.1438 54° Northeast  Level Estimated
09:57AM 33.6333 -84.2000 90° East 291 335 6,700  Level Atlanta TRACON
09:58AM 33.8724 -84.0090 92° East  Level FlightAware Approximate
09:58AM 33.6500 -84.1000 79° East 301 346 9,600  Level Atlanta TRACON
09:59AM 33.9527 -83.9149 53° Northeast  Level Estimated
09:59AM 33.7192 -83.9914 53° Northeast 346 398 11,700  Level Atlanta Center
10:00AM 34.0005 -83.7927 65° Northeast  Level FlightAware Approximate
10:00AM 33.7878 -83.9039 47° Northeast 346 398 12,700  Level Atlanta Center
10:01AM 33.8608 -83.8061 48° Northeast 365 420 13,700 960 Climbing Atlanta Center
10:02AM 33.9358 -83.7108 46° Northeast 385 443 14,700 960 Climbing Atlanta Center
10:03AM 34.0042 -83.6003 53° Northeast 404 465 15,700 960 Climbing Atlanta Center
10:04AM 34.0706 -83.4897 54° Northeast 409 471 16,700 840 Climbing Atlanta Center
10:05AM 34.1411 -83.3761 53° Northeast 414 476 17,400 600 Climbing Atlanta Center
10:06AM 34.2156 -83.2625 52° Northeast 419 482 18,000 660 Climbing Atlanta Center
10:07AM 34.2775 -83.1614 53° Northeast 419 482 18,800 960 Climbing Atlanta Center
10:08AM 34.3475 -83.0475 53° Northeast 419 482 20,000 1,200 Climbing Atlanta Center
10:09AM 34.4194 -82.9333 53° Northeast 419 482 21,300 1,200 Climbing Atlanta Center
10:10AM 34.4853 -82.8192 55° Northeast 414 476 22,400 900 Climbing Atlanta Center
10:11AM 34.5592 -82.7044 52° Northeast 414 476 23,100 720 Climbing Atlanta Center
10:12AM 34.6411 -82.5769 52° Northeast 425 489 23,900 660 Climbing Atlanta Center
10:13AM 34.7108 -82.4619 54° Northeast 425 489 24,500 540 Climbing Atlanta Center
10:14AM 34.7842 -82.3392 54° Northeast 432 497 25,000 480 Climbing Atlanta Center
10:15AM 34.8617 -82.2111 54° Northeast 449 517 25,500 420 Climbing Atlanta Center
10:16AM 34.9311 -82.1031 52° Northeast 455 524 25,900 480 Climbing Atlanta Center
10:17AM 35.0061 -81.9772 54° Northeast 455 524 26,500 540 Climbing Atlanta Center
10:18AM 35.0789 -81.8458 56° Northeast 455 524 27,000 480 Climbing Atlanta Center
10:19AM 35.1475 -81.7144 57° Northeast 455 524 27,500 480 Climbing Atlanta Center
10:20AM 35.2158 -81.5831 57° Northeast 455 524 28,000 480 Climbing Atlanta Center
10:21AM 35.2861 -81.4511 57° Northeast 460 529 28,500 480 Climbing Atlanta Center
10:22AM 35.3564 -81.3139 58° Northeast 460 529 29,000 240 Climbing Atlanta Center
10:23AM 35.4261 -81.1792 58° Northeast 465 535 29,000  Level Atlanta Center
10:24AM 35.4981 -81.0389 58° Northeast 470 541 29,000  Level Atlanta Center
10:25AM 35.5697 -80.9008 57° Northeast 475 547 29,000  Level Atlanta Center
10:26AM 35.6453 -80.7625 56° Northeast 481 554 29,000  Level Atlanta Center
10:27AM 35.7186 -80.6189 58° Northeast 487 560 29,000  Level Atlanta Center
10:29AM 35.8456 -80.3711 58° Northeast 496 571 29,000  Level Washington Center
10:30AM 35.9181 -80.2267 58° Northeast 496 571 29,000  Level Washington Center
10:31AM 35.9747 -80.1144 58° Northeast 491 565 29,000  Level Washington Center
10:32AM 36.0575 -79.9625 56° Northeast 485 558 29,000  Level Washington Center
10:33AM 36.1333 -79.8253 56° Northeast 485 558 29,000 -60 Level Washington Center
10:34AM 36.2181 -79.6728 55° Northeast 492 566 28,900 -480 Descending Washington Center
10:35AM 36.2978 -79.5325 55° Northeast 492 566 28,100 -720 Descending Washington Center
10:36AM 36.3775 -79.3919 55° Northeast 497 572 27,500 -660 Descending Washington Center
10:37AM 36.4550 -79.2486 56° Northeast 497 572 26,800 -720 Descending Washington Center
10:38AM 36.5364 -79.1103 54° Northeast 497 572 26,100 -720 Descending Washington Center
10:39AM 36.6175 -78.9664 55° Northeast 497 572 25,400 -600 Descending Washington Center
10:40AM 36.6881 -78.8322 57° Northeast 503 579 25,000 -240 Descending Washington Center
10:41AM 36.7736 -78.6750 56° Northeast 503 579 25,000  Level Washington Center
10:42AM 36.8503 -78.5353 56° Northeast 497 572 25,000 -300 Level Washington Center
10:43AM 36.9381 -78.4400 41° Northeast 478 550 24,500 -660 Descending Washington Center
10:44AM 37.0428 -78.3344 39° Northeast 473 544 23,700 -720 Descending Washington Center
10:45AM 37.1453 -78.2286 39° Northeast 473 544 23,100 -660 Descending Washington Center
10:46AM 37.2456 -78.1253 39° Northeast 473 544 22,400 -600 Descending Washington Center
10:47AM 37.3458 -78.0189 40° Northeast 468 539 22,000 -240 Descending Washington Center
10:48AM 37.4436 -77.9147 40° Northeast 468 539 22,000  Level Washington Center
10:49AM 37.5436 -77.8208 37° Northeast 463 533 22,000 -300 Level Washington Center
10:50AM 37.6533 -77.7558 25° Northeast 443 510 21,400 -1,380 Descending Washington Center
10:51AM 37.7606 -77.6931 25° Northeast 421 484 19,300 -2,160 Descending Washington Center
10:52AM 37.8681 -77.6303 25° Northeast 416 479 17,100 -2,340 Descending Washington Center
10:53AM 37.9692 -77.5700 25° Northeast 410 472 14,700 -2,340 Descending Washington Center
10:54AM 38.0661 -77.5169 23° Northeast 391 450 12,400 -2,340 Descending Washington Center
10:55AM 38.1544 -77.4639 25° Northeast 366 421 10,100 -1,380 Descending Washington Center
10:56AM 38.2342 -77.4264 20° North 332 382 9,700 -960 Descending Washington Center
10:57AM 38.3136 -77.4122 North 298 343 8,300 -1,380 Descending Washington Center
10:58AM 38.3911 -77.4008 North 281 323 7,000 -1,320 Descending Washington Center
10:59AM 38.4683 -77.3869 North 276 318 5,700 -960 Descending Washington Center
11:00AM 38.5436 -77.3728 North 276 318 5,100 -540 Descending Washington Center
11:01AM 38.6231 -77.3642 North 276 318 4,700 -540 Descending Washington Center
11:02AM 38.7003 -77.3633 360° North 276 318 4,100 -360 Descending Washington Center
11:03AM 38.7775 -77.3597 North 276 318 4,000 -60 Descending Washington Center
11:04AM 38.8667 -77.3500 North 248 285 4,000  Level Potomac TRACON
11:05AM 38.9333 -77.3500 360° North 240 276 4,000  Level Potomac TRACON
11:06AM 39.0000 -77.3500 360° North 234 269 4,000 -180 Level Potomac TRACON
11:07AM 39.0667 -77.3500 360° North 235 270 3,700 -660 Descending Potomac TRACON
11:08AM 39.1167 -77.3500 360° North 223 257 2,700 -720 Descending Potomac TRACON
11:09AM 39.1667 -77.3833 333° Northwest 225 259 2,300 -360 Descending Potomac TRACON
11:10AM 39.1500 -77.4333 247° West 217 250 2,000 -180 Descending Potomac TRACON
11:11AM 39.0833 -77.4333 180° South 207 238 2,000 -120 Level Potomac TRACON
11:12AM 39.0333 -77.4333 180° South 192 221 1,800 -540 Descending Potomac TRACON
11:13AM 38.9833 -77.4333 180° South 140 161 1,000 -840 Descending Potomac TRACON